createdAt,value
2022-10-15T00:00:08.195Z,11.68
2022-10-15T00:02:35.156Z,10.32
2022-10-15T00:05:01.721Z,9.85
2022-10-15T00:07:29.180Z,10.00
2022-10-15T00:09:55.752Z,9.88
2022-10-15T00:12:22.299Z,10.15
2022-10-15T00:14:48.916Z,12.88
2022-10-15T00:17:15.433Z,11.63
2022-10-15T00:19:41.926Z,11.40
2022-10-15T00:22:08.549Z,14.13
2022-10-15T00:24:36.774Z,13.10
2022-10-15T00:27:03.557Z,14.32
2022-10-15T00:29:30.189Z,14.23
2022-10-15T00:31:56.775Z,13.60
2022-10-15T00:34:23.407Z,15.27
2022-10-15T00:36:51.041Z,14.93
2022-10-15T00:39:17.936Z,19.88
2022-10-15T00:41:45.537Z,13.60
2022-10-15T00:44:21.581Z,12.95
2022-10-15T00:46:52.017Z,16.30
2022-10-15T00:49:21.907Z,15.20
2022-10-15T00:51:54.524Z,15.43
2022-10-15T00:54:21.861Z,15.15
2022-10-15T00:56:50.645Z,13.45
2022-10-15T00:59:20.053Z,14.30
2022-10-15T01:01:47.036Z,14.50
2022-10-15T01:04:14.778Z,13.35
2022-10-15T01:06:41.383Z,16.33
2022-10-15T01:09:09.094Z,13.73
2022-10-15T01:11:39.526Z,13.65
2022-10-15T01:14:05.980Z,12.75
2022-10-15T01:16:43.621Z,14.13
2022-10-15T01:19:19.178Z,13.48
2022-10-15T01:21:58.769Z,14.35
2022-10-15T01:24:44.353Z,13.93
2022-10-15T01:27:28.099Z,14.07
2022-10-15T01:30:21.154Z,12.80
2022-10-15T01:33:28.689Z,14.50
2022-10-15T01:36:14.330Z,12.85
2022-10-15T01:39:11.372Z,16.05
2022-10-15T01:41:45.042Z,14.25
2022-10-15T01:44:28.457Z,18.60
2022-10-15T01:47:35.727Z,16.33
2022-10-15T01:50:05.944Z,16.33
2022-10-15T01:52:36.719Z,16.27
2022-10-15T01:55:07.348Z,16.70
2022-10-15T01:57:38.022Z,17.85
2022-10-15T02:00:05.383Z,19.58
2022-10-15T02:02:39.265Z,15.40
2022-10-15T02:05:15.533Z,16.23
2022-10-15T02:08:20.419Z,17.70
2022-10-15T02:10:59.801Z,15.63
2022-10-15T02:13:35.481Z,16.85
2022-10-15T02:16:12.983Z,15.23
2022-10-15T02:18:45.913Z,16.90
2022-10-15T02:21:17.852Z,18.25
2022-10-15T02:24:11.546Z,16.13
2022-10-15T02:26:41.011Z,15.57
2022-10-15T02:29:12.448Z,18.55
2022-10-15T02:31:43.680Z,17.17
2022-10-15T02:34:15.746Z,16.08
2022-10-15T02:36:43.926Z,16.35
2022-10-15T02:39:14.665Z,15.35
2022-10-15T02:44:12.183Z,16.25
2022-10-15T02:46:38.772Z,15.68
2022-10-15T02:49:05.741Z,20.17
2022-10-15T02:51:34.013Z,15.52
2022-10-15T02:54:02.538Z,16.75
2022-10-15T02:58:57.322Z,17.92
2022-10-15T03:01:23.984Z,14.43
2022-10-15T03:03:50.627Z,21.27
2022-10-15T03:06:17.962Z,16.10
2022-10-15T03:08:46.552Z,14.70
2022-10-15T03:11:13.205Z,17.00
2022-10-15T03:13:41.025Z,15.48
2022-10-15T03:16:09.751Z,17.55
2022-10-15T03:18:40.707Z,15.35
2022-10-15T03:21:09.464Z,17.75
2022-10-15T03:23:36.500Z,19.42
2022-10-15T03:26:12.199Z,15.82
2022-10-15T03:28:38.890Z,15.73
2022-10-15T03:31:06.189Z,16.60
2022-10-15T03:33:32.976Z,17.30
2022-10-15T03:36:01.121Z,16.10
2022-10-15T03:38:27.788Z,18.08
2022-10-15T03:40:54.524Z,20.05
2022-10-15T03:43:37.487Z,18.13
2022-10-15T03:46:07.348Z,17.20
2022-10-15T03:48:38.348Z,15.70
2022-10-15T03:51:05.333Z,17.10
2022-10-15T03:53:32.066Z,17.02
2022-10-15T03:56:06.116Z,16.73
2022-10-15T03:58:35.844Z,19.38
2022-10-15T04:01:10.306Z,19.25
2022-10-15T04:03:38.697Z,17.55
2022-10-15T04:06:06.250Z,17.70
2022-10-15T04:08:34.516Z,16.35
2022-10-15T04:11:07.522Z,17.83
2022-10-15T04:13:34.615Z,19.77
2022-10-15T04:16:05.006Z,19.73
2022-10-15T04:18:32.251Z,16.73
2022-10-15T04:21:00.258Z,16.95
2022-10-15T04:23:27.421Z,16.88
2022-10-15T04:26:12.721Z,17.55
2022-10-15T04:28:39.444Z,15.52
2022-10-15T04:31:06.578Z,17.90
2022-10-15T04:33:33.943Z,16.60
2022-10-15T04:36:09.021Z,14.93
2022-10-15T04:38:52.924Z,18.33
2022-10-15T04:41:28.889Z,15.52
2022-10-15T04:44:05.208Z,18.90
2022-10-15T04:46:32.577Z,14.77
2022-10-15T04:49:04.607Z,13.07
2022-10-15T04:51:31.165Z,14.43
2022-10-15T04:54:12.381Z,18.73
2022-10-15T04:56:53.909Z,18.75
2022-10-15T04:59:20.926Z,16.05
2022-10-15T05:02:16.994Z,14.20
2022-10-15T05:04:46.118Z,15.73
2022-10-15T05:07:12.652Z,13.35
2022-10-15T05:09:45.303Z,14.73
2022-10-15T05:12:12.846Z,13.55
2022-10-15T05:14:39.783Z,14.50
2022-10-15T05:17:15.718Z,14.70
2022-10-15T05:19:43.496Z,12.70
2022-10-15T05:22:16.914Z,12.77
2022-10-15T05:24:49.633Z,13.40
2022-10-15T05:27:33.416Z,12.65
2022-10-15T05:30:01.183Z,15.15
2022-10-15T05:32:43.518Z,12.32
2022-10-15T05:35:12.315Z,13.95
2022-10-15T05:37:52.128Z,13.38
2022-10-15T05:40:21.272Z,10.70
2022-10-15T05:43:01.318Z,11.88
2022-10-15T05:45:27.869Z,12.32
2022-10-15T05:47:55.957Z,12.40
2022-10-15T05:50:23.474Z,12.90
2022-10-15T05:52:54.779Z,13.10
2022-10-15T05:55:30.395Z,13.32
2022-10-15T05:58:01.455Z,11.93
2022-10-15T06:00:28.162Z,12.30
2022-10-15T06:02:54.764Z,10.35
2022-10-15T06:05:22.137Z,11.88
2022-10-15T06:07:48.684Z,12.20
2022-10-15T06:10:15.325Z,12.20
2022-10-15T06:12:42.751Z,12.48
2022-10-15T06:15:09.848Z,10.05
2022-10-15T06:17:36.385Z,9.43
2022-10-15T06:20:03.096Z,10.88
2022-10-15T06:22:32.941Z,10.23
2022-10-15T06:24:59.728Z,10.20
2022-10-15T06:27:27.865Z,11.52
2022-10-15T06:29:54.480Z,9.05
2022-10-15T06:32:21.081Z,8.57
2022-10-15T06:34:47.571Z,11.02
2022-10-15T06:37:14.141Z,12.63
2022-10-15T06:39:40.999Z,11.52
2022-10-15T06:42:07.746Z,10.80
2022-10-15T06:44:38.749Z,10.85
2022-10-15T06:47:05.440Z,9.57
2022-10-15T06:49:32.094Z,10.52
2022-10-15T06:52:02.668Z,12.25
2022-10-15T06:54:30.653Z,11.38
2022-10-15T06:56:57.213Z,10.05
2022-10-15T06:59:23.763Z,9.80
2022-10-15T07:01:50.340Z,8.23
2022-10-15T07:04:16.869Z,10.98
2022-10-15T07:06:43.479Z,7.78
2022-10-15T07:09:09.984Z,6.72
2022-10-15T07:11:36.556Z,8.10
2022-10-15T07:14:03.033Z,7.20
2022-10-15T07:16:29.677Z,6.47
2022-10-15T07:18:56.462Z,7.75
2022-10-15T07:21:23.118Z,6.30
2022-10-15T07:23:50.005Z,6.60
2022-10-15T07:26:16.556Z,7.47
2022-10-15T07:28:43.202Z,6.82
2022-10-15T07:31:09.962Z,6.70
2022-10-15T07:33:37.253Z,6.03
2022-10-15T07:36:09.439Z,5.38
2022-10-15T07:38:36.647Z,5.45
2022-10-15T07:41:04.632Z,5.57
2022-10-15T07:43:32.747Z,4.60
2022-10-15T07:45:59.438Z,6.90
2022-10-15T07:48:26.507Z,4.50
2022-10-15T07:51:01.532Z,3.42
2022-10-15T07:53:28.456Z,3.53
2022-10-15T07:56:00.157Z,5.88
2022-10-15T07:58:30.633Z,2.90
2022-10-15T08:01:05.899Z,3.08
2022-10-15T08:03:34.051Z,2.35
2022-10-15T08:06:02.046Z,2.30
2022-10-15T08:08:29.472Z,2.75
2022-10-15T08:10:56.314Z,3.08
2022-10-15T08:13:23.258Z,1.98
2022-10-15T08:15:51.921Z,2.55
2022-10-15T08:18:19.611Z,2.55
2022-10-15T08:20:46.180Z,4.30
2022-10-15T08:23:16.739Z,3.42
2022-10-15T08:25:43.797Z,2.05
2022-10-15T08:28:12.481Z,2.28
2022-10-15T08:30:39.023Z,2.05
2022-10-15T08:33:11.524Z,2.50
2022-10-15T08:35:41.583Z,2.58
2022-10-15T08:38:08.114Z,3.85
2022-10-15T08:40:36.117Z,2.85
2022-10-15T08:43:04.631Z,3.17
2022-10-15T08:45:54.001Z,2.53
2022-10-15T08:48:31.065Z,2.47
2022-10-15T08:51:06.156Z,2.42
2022-10-15T08:53:41.196Z,2.80
2022-10-15T08:56:27.378Z,5.00
2022-10-15T08:59:05.747Z,2.15
2022-10-15T09:01:36.652Z,2.38
2022-10-15T09:04:23.661Z,1.90
2022-10-15T09:07:02.919Z,1.77
2022-10-15T09:09:52.088Z,3.45
2022-10-15T09:12:18.617Z,3.05
2022-10-15T09:14:48.099Z,1.98
2022-10-15T09:17:25.370Z,2.70
2022-10-15T09:19:57.147Z,2.85
2022-10-15T09:22:29.895Z,4.75
2022-10-15T09:24:57.109Z,4.63
2022-10-15T09:27:35.835Z,1.75
2022-10-15T09:30:12.431Z,2.53
2022-10-15T09:32:51.985Z,2.47
2022-10-15T09:35:34.568Z,2.83
2022-10-15T09:38:29.587Z,3.42
2022-10-15T09:40:59.272Z,2.22
2022-10-15T09:43:34.975Z,2.70
2022-10-15T09:46:05.159Z,2.00
2022-10-15T09:48:55.289Z,2.33
2022-10-15T09:51:33.116Z,1.42
2022-10-15T09:54:36.966Z,2.42
2022-10-15T09:57:03.728Z,1.58
2022-10-15T10:02:15.453Z,2.25
2022-10-15T10:04:42.351Z,2.95
2022-10-15T10:07:31.548Z,2.08
2022-10-15T10:10:01.882Z,1.77
2022-10-15T10:12:32.776Z,2.38
2022-10-15T10:15:26.279Z,1.40
2022-10-15T10:17:54.222Z,1.73
2022-10-15T10:20:23.915Z,1.98
2022-10-15T10:23:02.390Z,2.37
2022-10-15T10:25:34.094Z,1.95
2022-10-15T10:28:05.617Z,2.25
2022-10-15T10:30:57.082Z,3.13
2022-10-15T10:33:34.253Z,1.88
2022-10-15T10:36:01.926Z,2.03
2022-10-15T10:38:34.911Z,2.45
2022-10-15T10:41:08.601Z,2.10
2022-10-15T10:43:53.930Z,2.40
2022-10-15T10:46:25.423Z,2.30
2022-10-15T10:48:53.474Z,2.60
2022-10-15T10:51:23.409Z,2.40
2022-10-15T10:53:57.386Z,3.00
2022-10-15T10:56:40.882Z,2.53
2022-10-15T10:59:19.346Z,2.22
2022-10-15T11:01:49.660Z,2.75
2022-10-15T11:04:35.078Z,3.22
2022-10-15T11:07:09.351Z,3.60
2022-10-15T11:09:56.441Z,2.10
2022-10-15T11:12:37.978Z,2.75
2022-10-15T11:15:35.888Z,3.13
2022-10-15T11:18:20.765Z,3.00
2022-10-15T11:21:04.354Z,2.35
2022-10-15T11:23:36.839Z,3.10
2022-10-15T11:26:59.256Z,2.70
2022-10-15T11:30:18.965Z,3.13
2022-10-15T11:33:26.181Z,2.67
2022-10-15T11:36:17.443Z,3.33
2022-10-15T11:38:59.508Z,2.45
2022-10-15T11:41:34.235Z,3.28
2022-10-15T11:44:19.891Z,3.92
2022-10-15T11:46:56.187Z,2.38
2022-10-15T11:49:41.256Z,2.70
2022-10-15T11:52:14.042Z,3.85
2022-10-15T11:55:11.085Z,2.22
2022-10-15T11:57:40.406Z,4.38
2022-10-15T12:00:10.213Z,1.92
2022-10-15T12:02:40.171Z,2.55
2022-10-15T12:05:10.149Z,2.67
2022-10-15T12:07:45.492Z,2.90
2022-10-15T12:10:12.288Z,3.22
2022-10-15T12:13:03.992Z,2.90
2022-10-15T12:15:43.299Z,3.90
2022-10-15T12:18:33.999Z,3.38
2022-10-15T12:23:41.047Z,2.28
2022-10-15T12:26:35.044Z,2.53
2022-10-15T12:29:18.868Z,2.75
2022-10-15T12:31:58.192Z,2.70
2022-10-15T12:34:36.804Z,2.88
2022-10-15T12:37:26.844Z,2.45
2022-10-15T12:40:04.306Z,2.90
2022-10-15T12:42:34.409Z,2.33
2022-10-15T12:45:05.058Z,2.88
2022-10-15T12:47:56.565Z,3.28
2022-10-15T12:50:28.466Z,2.20
2022-10-15T12:53:34.402Z,2.58
2022-10-15T12:56:10.514Z,2.58
2022-10-15T12:58:46.944Z,2.13
2022-10-15T13:01:13.415Z,2.92
2022-10-15T13:03:49.548Z,3.53
2022-10-15T13:06:43.872Z,2.53
2022-10-15T13:09:10.430Z,2.60
2022-10-15T13:11:53.689Z,3.17
2022-10-15T13:14:38.347Z,2.63
2022-10-15T13:17:14.757Z,2.33
2022-10-15T13:19:48.397Z,2.42
2022-10-15T13:22:27.393Z,1.98
2022-10-15T13:24:55.765Z,1.90
2022-10-15T13:27:23.928Z,2.63
2022-10-15T13:29:59.697Z,2.15
2022-10-15T13:32:31.085Z,1.70
2022-10-15T13:34:59.813Z,1.35
2022-10-15T13:37:35.923Z,1.23
2022-10-15T13:40:07.838Z,0.88
2022-10-15T13:42:35.506Z,1.35
2022-10-15T13:45:15.424Z,0.70
2022-10-15T13:47:51.108Z,1.75
2022-10-15T13:50:26.756Z,2.60
2022-10-15T13:53:16.623Z,0.93
2022-10-15T13:55:49.511Z,2.30
2022-10-15T13:58:29.261Z,1.67
2022-10-15T14:01:14.235Z,0.40
2022-10-15T14:03:50.342Z,1.67
2022-10-15T14:06:20.097Z,0.77
2022-10-15T14:08:49.085Z,0.30
2022-10-15T14:11:16.313Z,0.20
2022-10-15T14:13:47.051Z,0.50
2022-10-15T14:16:32.089Z,0.85
2022-10-15T14:19:10.135Z,0.60
2022-10-15T14:21:42.793Z,0.40
2022-10-15T14:24:24.933Z,0.40
2022-10-15T14:26:51.743Z,0.40
2022-10-15T14:29:35.418Z,0.52
2022-10-15T14:32:02.488Z,3.00
2022-10-15T14:34:38.799Z,0.40
2022-10-15T14:37:30.321Z,0.35
2022-10-15T14:40:10.924Z,0.55
2022-10-15T14:42:39.305Z,0.60
2022-10-15T14:45:21.197Z,0.70
2022-10-15T14:47:50.671Z,1.88
2022-10-15T14:50:19.135Z,0.60
2022-10-15T14:52:49.920Z,1.98
2022-10-15T14:55:25.497Z,1.00
2022-10-15T14:57:52.492Z,0.70
2022-10-15T15:00:36.011Z,0.32
2022-10-15T15:03:06.156Z,0.60
2022-10-15T15:05:48.676Z,0.75
2022-10-15T15:08:16.312Z,0.90
2022-10-15T15:10:44.097Z,1.20
2022-10-15T15:13:19.854Z,1.75
2022-10-15T15:15:46.632Z,1.38
2022-10-15T15:18:13.965Z,1.42
2022-10-15T15:20:43.390Z,0.68
2022-10-15T15:23:25.848Z,1.10
2022-10-15T15:25:54.142Z,1.48
2022-10-15T15:28:23.764Z,1.20
2022-10-15T15:31:01.677Z,1.23
2022-10-15T15:33:28.479Z,1.30
2022-10-15T15:36:09.025Z,1.23
2022-10-15T15:41:04.890Z,3.38
2022-10-15T15:43:31.543Z,1.73
2022-10-15T15:45:58.112Z,2.28
2022-10-15T15:48:24.807Z,2.85
2022-10-15T15:50:51.934Z,2.53
2022-10-15T15:53:18.535Z,4.75
2022-10-15T15:55:45.285Z,4.85
2022-10-15T15:58:11.931Z,5.03
2022-10-15T16:00:39.170Z,2.35
2022-10-15T16:03:06.394Z,2.92
2022-10-15T16:05:35.260Z,3.33
2022-10-15T16:08:03.101Z,2.35
2022-10-15T16:10:31.037Z,3.35
2022-10-15T16:12:57.883Z,2.85
2022-10-15T16:15:24.665Z,3.20
2022-10-15T16:17:51.143Z,3.63
2022-10-15T16:20:17.981Z,4.38
2022-10-15T16:22:44.566Z,3.20
2022-10-15T16:25:11.120Z,3.30
2022-10-15T16:27:37.887Z,3.90
2022-10-15T16:30:04.950Z,5.90
2022-10-15T16:32:31.544Z,4.18
2022-10-15T16:34:58.092Z,8.55
2022-10-15T16:37:25.051Z,4.88
2022-10-15T16:39:51.843Z,4.82
2022-10-15T16:44:45.162Z,4.72
2022-10-15T16:47:11.968Z,8.60
2022-10-15T16:49:38.898Z,6.07
2022-10-15T16:52:07.442Z,8.88
2022-10-15T16:54:34.298Z,9.68
2022-10-15T16:57:01.027Z,11.82
2022-10-15T16:59:27.676Z,8.88
2022-10-15T17:01:56.026Z,6.38
2022-10-15T17:04:22.780Z,6.80
2022-10-15T17:06:50.193Z,5.03
2022-10-15T17:09:16.985Z,6.75
2022-10-15T17:11:46.065Z,7.50
2022-10-15T17:14:14.831Z,5.65
2022-10-15T17:16:47.445Z,74.90
2022-10-15T17:19:15.418Z,10.65
2022-10-15T17:21:43.736Z,22.48
2022-10-15T17:24:14.451Z,23.27
2022-10-15T17:26:43.167Z,51.15
2022-10-15T17:29:18.668Z,27.10
2022-10-15T17:31:46.504Z,42.58
2022-10-15T17:34:13.776Z,43.08
2022-10-15T17:36:45.635Z,43.03
2022-10-15T17:39:15.130Z,36.45
2022-10-15T17:41:42.099Z,16.02
2022-10-15T17:44:08.816Z,20.17
2022-10-15T17:46:35.445Z,10.88
2022-10-15T17:49:03.427Z,3.83
2022-10-15T17:51:32.112Z,7.95
2022-10-15T17:54:00.031Z,6.38
2022-10-15T17:56:29.366Z,5.85
2022-10-15T17:58:56.892Z,5.82
2022-10-15T18:01:56.282Z,4.72
2022-10-15T18:04:17.041Z,6.45
2022-10-15T18:06:44.903Z,4.32
2022-10-15T18:09:23.611Z,4.82
2022-10-15T18:11:50.554Z,5.05
2022-10-15T18:14:17.192Z,6.03
2022-10-15T18:16:43.949Z,4.68
2022-10-15T18:19:10.619Z,3.38
2022-10-15T18:21:37.297Z,4.85
2022-10-15T18:24:04.126Z,4.55
2022-10-15T18:26:30.888Z,9.18
2022-10-15T18:28:57.605Z,4.60
2022-10-15T18:31:26.241Z,4.78
2022-10-15T18:33:55.738Z,3.55
2022-10-15T18:36:25.676Z,4.57
2022-10-15T18:38:52.896Z,4.25
2022-10-15T18:41:20.556Z,4.45
2022-10-15T18:43:58.307Z,5.20
2022-10-15T18:46:29.811Z,4.85
2022-10-15T18:48:57.447Z,6.38
2022-10-15T18:51:27.120Z,9.43
2022-10-15T18:53:53.971Z,6.25
2022-10-15T18:56:21.758Z,6.30
2022-10-15T18:58:48.683Z,6.22
2022-10-15T19:01:36.161Z,5.57
2022-10-15T19:04:06.287Z,6.07
2022-10-15T19:06:36.596Z,6.63
2022-10-15T19:09:06.242Z,8.07
2022-10-15T19:11:34.124Z,5.32
2022-10-15T19:14:02.762Z,6.38
2022-10-15T19:16:29.713Z,6.18
2022-10-15T19:19:02.939Z,5.93
2022-10-15T19:21:30.761Z,6.28
2022-10-15T19:23:57.415Z,5.90
2022-10-15T19:26:24.380Z,5.50
2022-10-15T19:28:51.874Z,5.40
2022-10-15T19:31:24.930Z,5.50
2022-10-15T19:33:51.528Z,5.78
2022-10-15T19:36:27.989Z,7.20
2022-10-15T19:38:55.007Z,6.05
2022-10-15T19:41:22.244Z,5.32
2022-10-15T19:43:48.960Z,5.75
2022-10-15T19:46:15.569Z,5.85
2022-10-15T19:48:44.309Z,6.72
2022-10-15T19:51:10.945Z,6.45
2022-10-15T19:53:37.655Z,7.45
2022-10-15T19:56:10.496Z,6.78
2022-10-15T19:58:37.386Z,6.18
2022-10-15T20:01:05.546Z,5.20
2022-10-15T20:03:32.574Z,6.57
2022-10-15T20:06:08.321Z,6.65
2022-10-15T20:08:35.688Z,6.32
2022-10-15T20:11:06.578Z,5.80
2022-10-15T20:13:34.265Z,6.15
2022-10-15T20:16:09.704Z,6.32
2022-10-15T20:18:36.753Z,8.10
2022-10-15T20:21:11.839Z,6.05
2022-10-15T20:23:39.938Z,6.60
2022-10-15T20:26:09.520Z,7.55
2022-10-15T20:28:40.182Z,7.20
2022-10-15T20:33:34.949Z,9.35
2022-10-15T20:36:06.532Z,7.82
2022-10-15T20:38:33.905Z,7.85
2022-10-15T20:41:00.616Z,7.93
2022-10-15T20:43:27.296Z,10.10
2022-10-15T20:45:56.402Z,7.38
2022-10-15T20:48:26.573Z,7.95
2022-10-15T20:50:55.538Z,7.22
2022-10-15T20:53:23.686Z,6.88
2022-10-15T20:55:50.944Z,6.47
2022-10-15T20:58:17.639Z,5.95
2022-10-15T21:00:44.372Z,6.65
2022-10-15T21:03:12.066Z,8.35
2022-10-15T21:05:38.872Z,5.78
2022-10-15T21:08:05.548Z,8.52
2022-10-15T21:10:32.272Z,6.55
2022-10-15T21:12:58.852Z,4.55
2022-10-15T21:15:25.721Z,4.53
2022-10-15T21:17:52.326Z,4.20
2022-10-15T21:20:19.266Z,4.35
2022-10-15T21:22:45.934Z,5.25
2022-10-15T21:25:12.469Z,5.82
2022-10-15T21:27:39.217Z,6.40
2022-10-15T21:30:07.137Z,5.38
2022-10-15T21:32:33.879Z,4.95
2022-10-15T21:35:00.849Z,5.38
2022-10-15T21:37:27.848Z,6.03
2022-10-15T21:39:54.841Z,6.20
2022-10-15T21:42:21.591Z,7.03
2022-10-15T21:44:48.118Z,8.27
2022-10-15T21:47:15.582Z,7.82
2022-10-15T21:49:42.249Z,7.20
2022-10-15T21:52:09.044Z,6.32
2022-10-15T21:54:35.645Z,6.22
2022-10-15T21:57:02.244Z,6.80
2022-10-15T21:59:28.724Z,8.07
2022-10-15T22:01:55.414Z,7.15
2022-10-15T22:04:22.234Z,6.68
2022-10-15T22:06:48.756Z,6.63
2022-10-15T22:09:15.433Z,5.95
2022-10-15T22:11:42.445Z,7.22
2022-10-15T22:14:12.368Z,7.00
2022-10-15T22:16:40.360Z,6.20
2022-10-15T22:19:09.750Z,8.07
2022-10-15T22:21:37.877Z,6.55
2022-10-15T22:24:12.888Z,7.28
2022-10-15T22:26:42.401Z,6.43
2022-10-15T22:29:17.182Z,6.70
2022-10-15T22:31:43.999Z,6.70
2022-10-15T22:34:10.802Z,6.30
2022-10-15T22:36:37.374Z,7.10
2022-10-15T22:39:05.905Z,7.07
2022-10-15T22:41:35.704Z,7.72
2022-10-15T22:44:02.404Z,6.73
2022-10-15T22:46:32.549Z,8.00
2022-10-15T22:48:59.158Z,6.50
2022-10-15T22:51:25.807Z,7.70
2022-10-15T22:53:57.085Z,7.25
2022-10-15T22:56:25.794Z,6.43
2022-10-15T22:58:53.078Z,8.10
2022-10-15T23:01:22.528Z,7.72
2022-10-15T23:03:51.635Z,7.93
2022-10-15T23:06:19.162Z,6.60
2022-10-15T23:08:47.337Z,7.63
2022-10-15T23:11:19.801Z,6.55
2022-10-15T23:13:48.107Z,6.57
2022-10-15T23:16:23.354Z,7.05
2022-10-15T23:18:55.618Z,7.13
2022-10-15T23:21:29.365Z,7.00
2022-10-15T23:23:56.158Z,7.93
2022-10-15T23:26:23.070Z,9.50
2022-10-15T23:28:52.600Z,7.85
2022-10-15T23:31:24.351Z,7.65
2022-10-15T23:33:52.415Z,6.55
2022-10-15T23:36:20.302Z,8.60
2022-10-15T23:38:59.012Z,8.60
2022-10-15T23:41:26.797Z,7.05
2022-10-15T23:43:53.875Z,6.07
2022-10-15T23:46:20.802Z,6.35
2022-10-15T23:48:48.300Z,7.05
2022-10-15T23:51:19.387Z,8.23
2022-10-15T23:53:46.208Z,8.57
2022-10-15T23:56:12.878Z,6.55
2022-10-15T23:58:39.639Z,6.82
